COFK1: Verdigris River, Coffeyville Ks

Data processed at Thu May 23 2019 23:50


All information presented herein is the property of the government of the United States of America and may be revised or deleted at any time without prior notice.
Dissemination of this information without the expressed written consent of the Public Affairs Office, Tulsa District U.S. Army Corps of Engineers is strictly prohibited.
These data are gathered electronically and, as presented, have not undergone any form of quality control. These data are not guaranteed to be valid or correct.
Go to home page.
Go to station list.
Go to home page.

Upstream stations:

Downstream station:
Previous Day
Next Day
Current Day
    
SHEF ID:       COFK1     VERDIGRIS R AT COFFEYVILLE, KS
STATION TYPE:  
Regulating: Stage =    28.00, Flow =    31443

                STAGE  RIV-FLOW  BAT-LOAD
                   ft       cfs      volt
              Ccp-Rev   Ccp-Rev   Ccp-Rev
(US/Central)
05/23 00:00     32.95     42572     12.71
05/23 01:00     32.97     42742     12.71
05/23 02:00     33.03     43257     12.71
05/23 03:00     33.12     44038     12.71
05/23 04:00     33.19     44653     12.71
05/23 05:00     33.18     44565     12.71
05/23 06:00     33.27     45365     12.71
05/23 07:00     33.40     46541     12.65
05/23 08:00     33.51     47557     12.65
05/23 09:00     33.63     48685     12.71
05/23 10:00     33.74     49738     12.71
05/23 11:00     33.80     50320     13.12
05/23 12:00     33.93     51601     13.48
05/23 13:00     34.02     52504     13.59
05/23 14:00     34.06     52909     13.59
05/23 15:00     34.08     53112     13.53
05/23 16:00     34.12     53521     13.59
05/23 17:00     34.10     53317     13.53
05/23 18:00     34.04     52706     13.36
05/23 19:00     34.07     53011     13.12
05/23 20:00     33.97     52001     12.89
05/23 21:00     33.93     51601     12.83
05/23 22:00     33.86     50908     12.77
05/23 23:00     33.74     49738     12.77